createdAt,value
2023-02-14T00:00:51.651Z,98.13
2023-02-14T00:03:18.936Z,98.00
2023-02-14T00:05:46.427Z,98.06
2023-02-14T00:08:14.166Z,97.99
2023-02-14T00:10:41.138Z,98.22
2023-02-14T00:13:08.117Z,97.87
2023-02-14T00:15:35.506Z,98.27
2023-02-14T00:18:03.619Z,98.34
2023-02-14T00:20:30.549Z,98.19
2023-02-14T00:22:57.527Z,98.06
2023-02-14T00:25:24.934Z,98.05
2023-02-14T00:27:51.836Z,98.22
2023-02-14T00:30:19.017Z,98.38
2023-02-14T00:32:46.197Z,98.13
2023-02-14T00:35:13.446Z,98.59
2023-02-14T00:37:41.388Z,98.42
2023-02-14T00:40:09.235Z,98.29
2023-02-14T00:42:36.307Z,98.49
2023-02-14T00:45:03.176Z,98.33
2023-02-14T00:47:30.584Z,98.33
2023-02-14T00:50:03.109Z,98.89
2023-02-14T00:52:31.219Z,98.30
2023-02-14T00:54:58.563Z,98.55
2023-02-14T00:57:25.667Z,98.31
2023-02-14T00:59:52.638Z,98.36
2023-02-14T01:02:20.943Z,98.53
2023-02-14T01:04:47.997Z,98.52
2023-02-14T01:07:15.367Z,98.64
2023-02-14T01:09:42.627Z,98.37
2023-02-14T01:12:09.757Z,98.96
2023-02-14T01:14:36.625Z,98.56
2023-02-14T01:17:03.701Z,98.99
2023-02-14T01:19:31.090Z,98.22
2023-02-14T01:21:58.053Z,99.05
2023-02-14T01:24:26.483Z,98.39
2023-02-14T01:26:53.416Z,98.90
2023-02-14T01:29:20.546Z,98.17
2023-02-14T01:31:49.424Z,99.13
2023-02-14T01:34:17.544Z,98.82
2023-02-14T01:36:46.885Z,99.14
2023-02-14T01:39:15.520Z,98.77
2023-02-14T01:41:48.837Z,99.00
2023-02-14T01:44:17.077Z,98.68
2023-02-14T01:46:45.468Z,99.12
2023-02-14T01:49:18.881Z,98.85
2023-02-14T01:52:03.968Z,99.20
2023-02-14T01:54:32.531Z,99.03
2023-02-14T01:57:03.612Z,99.23
2023-02-14T01:59:35.041Z,98.80
2023-02-14T02:02:02.491Z,99.12
2023-02-14T02:04:36.373Z,98.72
2023-02-14T02:07:06.167Z,98.39
2023-02-14T02:09:36.785Z,99.30
2023-02-14T02:12:04.503Z,99.04
2023-02-14T02:14:32.416Z,99.08
2023-02-14T02:17:08.431Z,99.31
2023-02-14T02:19:57.371Z,98.94
2023-02-14T02:22:56.654Z,98.55
2023-02-14T02:25:34.032Z,99.20
2023-02-14T02:28:04.085Z,99.11
2023-02-14T02:30:50.908Z,99.50
2023-02-14T02:33:55.612Z,98.64
2023-02-14T02:36:28.744Z,99.37
2023-02-14T02:38:55.642Z,99.50
2023-02-14T02:41:44.132Z,99.15
2023-02-14T02:44:32.113Z,98.66
2023-02-14T02:47:20.100Z,98.79
2023-02-14T02:50:38.001Z,99.16
2023-02-14T02:53:33.694Z,98.98
2023-02-14T02:56:31.676Z,99.25
2023-02-14T02:59:37.404Z,99.60
2023-02-14T03:02:04.471Z,98.85
2023-02-14T03:04:52.022Z,99.24
2023-02-14T03:07:35.248Z,99.64
2023-02-14T03:10:13.061Z,99.24
2023-02-14T03:13:18.062Z,99.36
2023-02-14T03:16:03.297Z,98.71
2023-02-14T03:18:52.111Z,99.39
2023-02-14T03:21:27.031Z,99.45
2023-02-14T03:23:58.225Z,98.75
2023-02-14T03:26:35.671Z,99.80
2023-02-14T03:29:30.235Z,99.33
2023-02-14T03:32:12.035Z,99.82
2023-02-14T03:34:46.496Z,99.50
2023-02-14T03:37:28.813Z,99.55
2023-02-14T03:40:14.091Z,99.52
2023-02-14T03:42:50.706Z,99.72
2023-02-14T03:45:24.013Z,100.00
2023-02-14T03:47:52.113Z,99.07
2023-02-14T03:50:20.333Z,99.42
2023-02-14T03:52:50.294Z,99.51
2023-02-14T03:55:21.774Z,99.32
2023-02-14T03:57:55.965Z,99.80
2023-02-14T04:00:23.042Z,99.22
2023-02-14T04:03:02.544Z,99.79
2023-02-14T04:05:29.550Z,99.93
2023-02-14T04:07:57.747Z,99.67
2023-02-14T04:10:25.652Z,99.15
2023-02-14T04:12:53.345Z,100.00
2023-02-14T04:15:20.530Z,99.65
2023-02-14T04:18:06.405Z,99.11
2023-02-14T04:20:34.440Z,99.84
2023-02-14T04:23:03.330Z,99.97
2023-02-14T04:25:30.942Z,99.76
2023-02-14T04:27:57.841Z,100.00
2023-02-14T04:30:25.125Z,100.00
2023-02-14T04:32:52.218Z,100.00
2023-02-14T04:35:19.555Z,99.44
2023-02-14T04:37:46.615Z,99.60
2023-02-14T04:40:17.349Z,99.99
2023-02-14T04:42:45.439Z,99.84
2023-02-14T04:45:12.795Z,99.70
2023-02-14T04:47:40.418Z,100.00
2023-02-14T04:50:08.082Z,99.64
2023-02-14T04:52:35.033Z,100.00
2023-02-14T04:55:02.377Z,99.45
2023-02-14T04:57:29.541Z,100.00
2023-02-14T04:59:56.809Z,100.00
2023-02-14T05:02:24.269Z,100.00
2023-02-14T05:04:51.912Z,100.00
2023-02-14T05:07:19.438Z,100.00
2023-02-14T05:09:46.387Z,100.00
2023-02-14T05:12:13.780Z,99.76
2023-02-14T05:14:40.597Z,99.64
2023-02-14T05:17:07.763Z,100.00
2023-02-14T05:19:34.728Z,99.97
2023-02-14T05:22:01.650Z,100.00
2023-02-14T05:24:29.129Z,99.58
2023-02-14T05:26:55.936Z,100.00
2023-02-14T05:29:23.345Z,99.92
2023-02-14T05:31:50.663Z,99.81
2023-02-14T05:34:19.085Z,100.00
2023-02-14T05:36:46.318Z,100.00
2023-02-14T05:39:14.835Z,100.00
2023-02-14T05:41:42.217Z,100.00
2023-02-14T05:44:09.184Z,100.00
2023-02-14T05:46:36.228Z,100.00
2023-02-14T05:49:04.117Z,100.00
2023-02-14T05:51:31.788Z,100.00
2023-02-14T05:54:02.808Z,100.00
2023-02-14T05:56:30.050Z,100.00
2023-02-14T05:58:57.301Z,100.00
2023-02-14T06:01:24.645Z,100.00
2023-02-14T06:03:51.489Z,100.00
2023-02-14T06:06:19.032Z,100.00
2023-02-14T06:08:46.380Z,100.00
2023-02-14T06:11:13.864Z,100.00
2023-02-14T06:13:41.757Z,100.00
2023-02-14T06:16:08.759Z,100.00
2023-02-14T06:18:36.134Z,100.00
2023-02-14T06:21:03.531Z,100.00
2023-02-14T06:23:30.895Z,100.00
2023-02-14T06:25:58.056Z,100.00
2023-02-14T06:28:25.352Z,100.00
2023-02-14T06:30:52.626Z,100.00
2023-02-14T06:33:20.411Z,100.00
2023-02-14T06:35:47.348Z,100.00
2023-02-14T06:38:14.544Z,100.00
2023-02-14T06:40:41.591Z,99.90
2023-02-14T06:43:08.318Z,100.00
2023-02-14T06:45:35.036Z,100.00
2023-02-14T06:48:01.912Z,100.00
2023-02-14T06:50:28.770Z,100.00
2023-02-14T06:52:55.502Z,99.83
2023-02-14T06:55:22.294Z,99.96
2023-02-14T06:57:49.734Z,99.60
2023-02-14T07:00:17.554Z,100.00
2023-02-14T07:02:44.467Z,99.90
2023-02-14T07:05:11.193Z,99.06
2023-02-14T07:07:38.014Z,98.92
2023-02-14T07:10:05.297Z,98.84
2023-02-14T07:12:32.191Z,99.10
2023-02-14T07:14:58.840Z,99.24
2023-02-14T07:17:26.116Z,98.49
2023-02-14T07:19:52.854Z,98.83
2023-02-14T07:22:19.704Z,98.70
2023-02-14T07:24:47.051Z,97.92
2023-02-14T07:27:13.806Z,98.03
2023-02-14T07:29:40.618Z,98.14
2023-02-14T07:32:07.820Z,98.38
2023-02-14T07:34:35.568Z,98.16
2023-02-14T07:37:03.054Z,97.88
2023-02-14T07:39:30.418Z,97.47
2023-02-14T07:41:57.551Z,97.29
2023-02-14T07:44:26.820Z,97.43
2023-02-14T07:46:53.756Z,97.46
2023-02-14T07:49:20.862Z,97.04
2023-02-14T07:51:48.462Z,97.80
2023-02-14T07:54:16.102Z,97.89
2023-02-14T07:56:42.862Z,96.72
2023-02-14T07:59:10.187Z,97.57
2023-02-14T08:01:37.507Z,97.31
2023-02-14T08:04:04.774Z,97.33
2023-02-14T08:06:32.061Z,96.25
2023-02-14T08:08:58.869Z,95.90
2023-02-14T08:11:44.116Z,95.58
2023-02-14T08:14:10.811Z,94.97
2023-02-14T08:16:38.388Z,95.07
2023-02-14T08:19:05.150Z,94.31
2023-02-14T08:21:32.467Z,95.06
2023-02-14T08:23:59.375Z,94.87
2023-02-14T08:26:27.028Z,94.91
2023-02-14T08:28:54.497Z,95.07
2023-02-14T08:31:35.258Z,94.83
2023-02-14T08:34:04.724Z,94.71
2023-02-14T08:36:31.806Z,94.68
2023-02-14T08:38:58.601Z,94.87
2023-02-14T08:41:25.749Z,94.63
2023-02-14T08:43:52.523Z,94.58
2023-02-14T08:46:19.806Z,94.20
2023-02-14T08:48:46.661Z,94.17
2023-02-14T08:51:15.298Z,94.03
2023-02-14T08:53:43.431Z,93.93
2023-02-14T08:56:13.049Z,93.37
2023-02-14T08:58:40.780Z,93.49
2023-02-14T09:01:17.056Z,93.29
2023-02-14T09:03:45.092Z,93.02
2023-02-14T09:06:17.786Z,93.13
2023-02-14T09:08:45.505Z,92.44
2023-02-14T09:11:15.761Z,92.68
2023-02-14T09:13:43.744Z,92.18
2023-02-14T09:16:12.587Z,91.30
2023-02-14T09:18:40.194Z,91.49
2023-02-14T09:21:09.418Z,91.19
2023-02-14T09:23:36.779Z,91.46
2023-02-14T09:26:05.916Z,91.54
2023-02-14T09:28:33.065Z,91.10
2023-02-14T09:31:16.000Z,91.36
2023-02-14T09:34:02.108Z,91.63
2023-02-14T09:36:48.133Z,91.34
2023-02-14T09:39:15.586Z,90.31
2023-02-14T09:42:15.377Z,90.49
2023-02-14T09:44:45.268Z,89.06
2023-02-14T09:47:40.053Z,87.75
2023-02-14T09:50:15.026Z,85.87
2023-02-14T09:52:42.370Z,84.99
2023-02-14T09:55:15.917Z,83.38
2023-02-14T09:57:59.570Z,84.55
2023-02-14T10:00:34.434Z,83.93
2023-02-14T10:03:34.643Z,82.71
2023-02-14T10:06:35.498Z,83.49
2023-02-14T10:09:28.689Z,82.78
2023-02-14T10:11:58.937Z,81.95
2023-02-14T10:14:30.012Z,81.19
2023-02-14T10:17:02.372Z,80.47
2023-02-14T10:19:33.649Z,80.83
2023-02-14T10:22:11.414Z,79.32
2023-02-14T10:24:51.194Z,77.73
2023-02-14T10:27:42.443Z,77.17
2023-02-14T10:30:19.241Z,76.16
2023-02-14T10:32:57.153Z,75.22
2023-02-14T10:35:46.175Z,73.34
2023-02-14T10:38:41.885Z,71.25
2023-02-14T10:41:17.934Z,71.14
2023-02-14T10:44:23.736Z,70.96
2023-02-14T10:47:06.269Z,70.12
2023-02-14T10:49:45.558Z,68.34
2023-02-14T10:52:26.138Z,65.81
2023-02-14T10:54:58.948Z,67.26
2023-02-14T10:57:30.650Z,67.05
2023-02-14T11:00:01.270Z,66.64
2023-02-14T11:02:35.388Z,63.91
2023-02-14T11:05:04.509Z,66.02
2023-02-14T11:07:31.854Z,66.33
2023-02-14T11:09:59.380Z,65.02
2023-02-14T11:12:35.292Z,65.88
2023-02-14T11:15:21.200Z,63.89
2023-02-14T11:17:48.850Z,63.93
2023-02-14T11:20:30.647Z,63.80
2023-02-14T11:22:57.865Z,63.48
2023-02-14T11:25:27.479Z,63.13
2023-02-14T11:28:03.471Z,63.63
2023-02-14T11:30:36.137Z,62.29
2023-02-14T11:33:04.608Z,63.24
2023-02-14T11:35:35.637Z,63.33
2023-02-14T11:38:07.086Z,62.07
2023-02-14T11:40:39.619Z,61.74
2023-02-14T11:43:15.495Z,62.70
2023-02-14T11:45:44.700Z,63.12
2023-02-14T11:48:36.537Z,63.47
2023-02-14T11:51:10.696Z,63.39
2023-02-14T11:53:45.957Z,63.30
2023-02-14T11:56:14.835Z,62.99
2023-02-14T11:58:45.630Z,62.75
2023-02-14T12:01:21.361Z,62.90
2023-02-14T12:03:49.794Z,62.24
2023-02-14T12:06:27.155Z,63.01
2023-02-14T12:09:23.867Z,62.38
2023-02-14T12:12:03.284Z,63.61
2023-02-14T12:14:35.825Z,62.56
2023-02-14T12:17:12.061Z,61.89
2023-02-14T12:19:47.120Z,63.72
2023-02-14T12:22:19.852Z,63.68
2023-02-14T12:25:00.546Z,62.32
2023-02-14T12:27:34.717Z,61.68
2023-02-14T12:30:24.450Z,62.45
2023-02-14T12:32:54.019Z,61.37
2023-02-14T12:35:46.010Z,61.20
2023-02-14T12:38:15.339Z,61.03
2023-02-14T12:40:57.856Z,61.58
2023-02-14T12:43:50.990Z,59.66
2023-02-14T12:46:39.867Z,60.67
2023-02-14T12:49:28.456Z,59.05
2023-02-14T12:52:11.167Z,57.96
2023-02-14T12:55:00.522Z,58.07
2023-02-14T12:57:32.532Z,58.38
2023-02-14T13:00:37.409Z,59.05
2023-02-14T13:49:18.181Z,59.31
2023-02-14T13:52:02.040Z,60.98
2023-02-14T13:54:43.230Z,62.49
2023-02-14T13:57:31.778Z,63.90
2023-02-14T14:00:17.640Z,63.59
2023-02-14T14:02:51.049Z,63.91
2023-02-14T14:05:30.287Z,64.50
2023-02-14T14:08:18.703Z,65.48
2023-02-14T14:10:50.744Z,65.32
2023-02-14T14:13:42.361Z,66.08
2023-02-14T14:16:19.170Z,66.20
2023-02-14T14:18:46.440Z,66.04
2023-02-14T14:21:34.167Z,66.35
2023-02-14T14:24:23.548Z,66.78
2023-02-14T14:27:05.494Z,66.96
2023-02-14T14:29:48.682Z,66.99
2023-02-14T14:32:21.654Z,67.21
2023-02-14T14:34:50.900Z,68.52
2023-02-14T14:37:19.688Z,68.26
2023-02-14T14:39:55.055Z,67.60
2023-02-14T14:42:24.027Z,68.14
2023-02-14T14:44:54.306Z,68.50
2023-02-14T14:47:24.494Z,69.02
2023-02-14T14:49:53.399Z,68.85
2023-02-14T14:52:33.336Z,69.18
2023-02-14T14:55:00.971Z,69.10
2023-02-14T14:57:28.077Z,69.19
2023-02-14T15:00:17.990Z,69.46
2023-02-14T15:02:59.899Z,69.35
2023-02-14T15:05:36.823Z,70.27
2023-02-14T15:08:36.679Z,69.83
2023-02-14T15:11:10.436Z,70.57
2023-02-14T15:13:49.560Z,70.32
2023-02-14T15:16:25.201Z,69.76
2023-02-14T15:18:56.868Z,69.74
2023-02-14T15:21:23.873Z,70.13
2023-02-14T15:23:52.470Z,70.08
2023-02-14T15:26:34.482Z,70.38
2023-02-14T15:29:06.619Z,70.82
2023-02-14T15:31:39.933Z,71.33
2023-02-14T15:34:07.379Z,71.18
2023-02-14T15:36:35.030Z,71.88
2023-02-14T15:39:06.249Z,72.41
2023-02-14T15:41:33.097Z,72.58
2023-02-14T15:44:04.683Z,72.83
2023-02-14T15:46:41.654Z,72.17
2023-02-14T15:49:10.768Z,72.34
2023-02-14T15:51:38.284Z,73.50
2023-02-14T15:54:25.988Z,72.65
2023-02-14T15:56:53.568Z,72.91
2023-02-14T15:59:23.573Z,72.89
2023-02-14T16:02:29.303Z,73.19
2023-02-14T16:05:03.949Z,73.37
2023-02-14T16:07:30.762Z,73.80
2023-02-14T16:10:23.954Z,73.42
2023-02-14T16:13:00.029Z,73.89
2023-02-14T16:15:33.192Z,74.03
2023-02-14T16:18:01.328Z,74.28
2023-02-14T16:20:30.824Z,74.38
2023-02-14T16:23:24.125Z,74.50
2023-02-14T16:25:51.390Z,74.65
2023-02-14T16:28:19.192Z,76.08
2023-02-14T16:30:48.698Z,76.94
2023-02-14T16:33:21.174Z,77.59
2023-02-14T16:35:48.285Z,77.95
2023-02-14T16:38:17.898Z,78.20
2023-02-14T16:41:23.634Z,78.64
2023-02-14T16:43:51.267Z,79.37
2023-02-14T16:46:21.714Z,79.88
2023-02-14T16:49:01.601Z,80.92
2023-02-14T16:51:34.893Z,81.40
2023-02-14T16:54:07.320Z,81.36
2023-02-14T16:57:00.332Z,80.87
2023-02-14T16:59:27.421Z,81.75
2023-02-14T17:01:54.955Z,82.18
2023-02-14T17:04:21.603Z,82.49
2023-02-14T17:06:53.724Z,83.80
2023-02-14T17:09:27.389Z,83.68
2023-02-14T17:11:57.775Z,83.71
2023-02-14T17:14:29.955Z,84.59
2023-02-14T17:16:58.270Z,84.45
2023-02-14T17:19:25.431Z,84.85
2023-02-14T17:21:52.158Z,84.55
2023-02-14T17:24:18.969Z,85.01
2023-02-14T17:26:45.672Z,85.96
2023-02-14T17:29:13.602Z,85.80
2023-02-14T17:31:40.453Z,85.51
2023-02-14T17:34:07.430Z,86.10
2023-02-14T17:36:34.566Z,86.43
2023-02-14T17:39:03.643Z,87.18
2023-02-14T17:41:31.136Z,87.49
2023-02-14T17:44:00.403Z,87.92
2023-02-14T17:46:28.836Z,87.70
2023-02-14T17:48:56.213Z,86.88
2023-02-14T17:51:24.039Z,87.78
2023-02-14T17:53:51.055Z,88.33
2023-02-14T17:56:20.411Z,89.19
2023-02-14T17:58:48.718Z,88.74
2023-02-14T18:01:16.547Z,89.46
2023-02-14T18:03:43.617Z,89.97
2023-02-14T18:06:11.422Z,90.18
2023-02-14T18:08:46.388Z,89.56
2023-02-14T18:11:14.062Z,90.14
2023-02-14T18:13:40.781Z,89.86
2023-02-14T18:16:10.713Z,89.57
2023-02-14T18:18:38.063Z,89.62
2023-02-14T18:21:07.411Z,90.01
2023-02-14T18:23:34.207Z,90.47
2023-02-14T18:26:05.926Z,90.97
2023-02-14T18:28:33.990Z,91.26
2023-02-14T18:31:11.261Z,91.07
2023-02-14T18:33:39.093Z,91.17
2023-02-14T18:36:10.138Z,91.24
2023-02-14T18:38:36.933Z,91.57
2023-02-14T18:41:05.098Z,91.45
2023-02-14T18:43:31.843Z,91.20
2023-02-14T18:46:06.104Z,91.42
2023-02-14T18:48:33.779Z,90.64
2023-02-14T18:51:15.617Z,90.43
2023-02-14T18:53:43.579Z,91.12
2023-02-14T18:56:13.111Z,90.36
2023-02-14T18:58:41.224Z,89.37
2023-02-14T19:01:08.967Z,89.60
2023-02-14T19:03:36.409Z,89.07
2023-02-14T19:06:03.243Z,88.94
2023-02-14T19:08:32.305Z,89.57
2023-02-14T19:10:59.641Z,89.60
2023-02-14T19:13:29.276Z,89.73
2023-02-14T19:15:56.471Z,90.32
2023-02-14T19:18:25.636Z,89.86
2023-02-14T19:20:52.977Z,90.23
2023-02-14T19:23:19.762Z,90.55
2023-02-14T19:25:46.612Z,91.30
2023-02-14T19:28:13.618Z,91.95
2023-02-14T19:30:40.433Z,91.63
2023-02-14T19:33:07.156Z,92.13
2023-02-14T19:35:33.874Z,92.31
2023-02-14T19:38:03.504Z,92.54
2023-02-14T19:40:30.850Z,92.53
2023-02-14T19:42:57.544Z,92.55
2023-02-14T19:45:24.368Z,92.59
2023-02-14T19:47:51.056Z,92.32
2023-02-14T19:50:20.391Z,92.50
2023-02-14T19:52:48.637Z,92.70
2023-02-14T19:55:21.938Z,92.48
2023-02-14T19:57:48.949Z,92.62
2023-02-14T20:00:16.613Z,92.99
2023-02-14T20:02:48.153Z,93.04
2023-02-14T20:05:16.136Z,92.83
2023-02-14T20:07:43.469Z,93.22
2023-02-14T20:10:11.930Z,93.13
2023-02-14T20:12:38.979Z,93.18
2023-02-14T20:15:06.231Z,93.51
2023-02-14T20:17:33.045Z,94.06
2023-02-14T20:19:59.887Z,93.61
2023-02-14T20:22:26.672Z,93.48
2023-02-14T20:24:53.623Z,93.51
2023-02-14T20:27:20.612Z,93.53
2023-02-14T20:29:47.630Z,94.08
2023-02-14T20:32:16.015Z,93.62
2023-02-14T20:34:43.033Z,94.54
2023-02-14T20:37:11.158Z,94.39
2023-02-14T20:39:38.638Z,94.93
2023-02-14T20:42:05.589Z,94.20
2023-02-14T20:44:32.450Z,94.15
2023-02-14T20:46:59.167Z,94.49
2023-02-14T20:49:27.569Z,93.98
2023-02-14T20:51:54.608Z,94.84
2023-02-14T20:54:24.880Z,94.46
2023-02-14T20:56:51.920Z,94.72
2023-02-14T20:59:28.923Z,93.88
2023-02-14T21:01:57.258Z,94.79
2023-02-14T21:04:28.089Z,94.97
2023-02-14T21:06:55.681Z,94.29
2023-02-14T21:09:22.369Z,94.32
2023-02-14T21:11:50.289Z,95.26
2023-02-14T21:14:17.716Z,95.23
2023-02-14T21:16:44.611Z,94.93
2023-02-14T21:19:11.268Z,95.35
2023-02-14T21:21:39.096Z,95.07
2023-02-14T21:24:15.057Z,95.09
2023-02-14T21:26:43.182Z,95.29
2023-02-14T21:29:10.399Z,95.62
2023-02-14T21:31:37.797Z,95.92
2023-02-14T21:34:04.874Z,95.85
2023-02-14T21:36:33.226Z,95.70
2023-02-14T21:39:01.843Z,95.55
2023-02-14T21:41:29.893Z,95.79
2023-02-14T21:43:58.454Z,95.69
2023-02-14T21:46:31.144Z,95.77
2023-02-14T21:49:17.025Z,95.30
2023-02-14T21:51:44.103Z,95.41
2023-02-14T21:54:11.812Z,95.13
2023-02-14T21:56:39.181Z,95.20
2023-02-14T21:59:05.896Z,94.74
2023-02-14T22:01:35.110Z,95.14
2023-02-14T22:04:02.836Z,95.17
2023-02-14T22:06:29.621Z,95.74
2023-02-14T22:08:58.246Z,94.98
2023-02-14T22:11:27.255Z,95.43
2023-02-14T22:13:54.168Z,95.09
2023-02-14T22:16:22.878Z,94.96
2023-02-14T22:18:49.895Z,94.85
2023-02-14T22:21:22.432Z,95.01
2023-02-14T22:23:59.810Z,95.75
2023-02-14T22:26:31.095Z,95.03
2023-02-14T22:29:00.302Z,95.87
2023-02-14T22:31:30.093Z,95.59
2023-02-14T22:33:57.192Z,95.61
2023-02-14T22:36:27.722Z,95.70
2023-02-14T22:38:54.960Z,95.41
2023-02-14T22:41:23.971Z,96.47
2023-02-14T22:43:51.896Z,95.84
2023-02-14T22:46:22.730Z,96.83
2023-02-14T22:48:50.733Z,95.95
2023-02-14T22:51:25.387Z,96.07
2023-02-14T22:53:54.498Z,96.29
2023-02-14T22:56:26.551Z,96.33
2023-02-14T22:58:58.735Z,96.22
2023-02-14T23:01:25.896Z,96.65
2023-02-14T23:03:58.003Z,96.96
2023-02-14T23:06:26.648Z,97.15
2023-02-14T23:08:54.638Z,96.72
2023-02-14T23:11:23.994Z,96.65
2023-02-14T23:14:09.215Z,96.92
2023-02-14T23:16:54.579Z,97.26
2023-02-14T23:19:43.010Z,96.70
2023-02-14T23:22:15.086Z,97.72
2023-02-14T23:24:42.416Z,97.97
2023-02-14T23:27:09.443Z,97.34
2023-02-14T23:29:37.023Z,98.02
2023-02-14T23:32:04.985Z,97.78
2023-02-14T23:34:33.779Z,98.25
2023-02-14T23:37:00.765Z,97.68
2023-02-14T23:39:27.553Z,97.82
2023-02-14T23:41:54.324Z,97.53
2023-02-14T23:44:22.012Z,97.37
2023-02-14T23:46:50.561Z,97.47
2023-02-14T23:49:17.818Z,98.06
2023-02-14T23:51:45.899Z,97.41
2023-02-14T23:54:13.319Z,98.62
2023-02-14T23:56:40.528Z,98.19
2023-02-14T23:59:07.982Z,98.08
